sensor_id;sensor_type;location;lat;lon;timestamp;P1;durP1;ratioP1;P2;durP2;ratioP2
59571;SDS011;59406;45.602;11.904;2022-11-20T00:01:06;9.23;;;5.00;;
59571;SDS011;59406;45.602;11.904;2022-11-20T00:03:34;9.70;;;4.70;;
59571;SDS011;59406;45.602;11.904;2022-11-20T00:06:04;8.40;;;4.22;;
59571;SDS011;59406;45.602;11.904;2022-11-20T00:08:32;7.32;;;4.07;;
59571;SDS011;59406;45.602;11.904;2022-11-20T00:11:02;8.25;;;4.20;;
59571;SDS011;59406;45.602;11.904;2022-11-20T00:13:29;7.97;;;4.03;;
59571;SDS011;59406;45.602;11.904;2022-11-20T00:15:59;9.15;;;4.63;;
59571;SDS011;59406;45.602;11.904;2022-11-20T00:18:26;9.30;;;4.60;;
59571;SDS011;59406;45.602;11.904;2022-11-20T00:20:53;11.27;;;5.30;;
59571;SDS011;59406;45.602;11.904;2022-11-20T00:23:25;9.63;;;5.32;;
59571;SDS011;59406;45.602;11.904;2022-11-20T00:25:51;10.73;;;5.50;;
59571;SDS011;59406;45.602;11.904;2022-11-20T00:28:16;11.52;;;5.68;;
59571;SDS011;59406;45.602;11.904;2022-11-20T00:30:42;8.97;;;4.40;;
59571;SDS011;59406;45.602;11.904;2022-11-20T00:33:08;11.02;;;5.65;;
59571;SDS011;59406;45.602;11.904;2022-11-20T00:35:34;10.70;;;5.07;;
59571;SDS011;59406;45.602;11.904;2022-11-20T00:38:00;10.48;;;5.30;;
59571;SDS011;59406;45.602;11.904;2022-11-20T00:40:25;8.68;;;4.85;;
59571;SDS011;59406;45.602;11.904;2022-11-20T00:42:51;9.13;;;4.73;;
59571;SDS011;59406;45.602;11.904;2022-11-20T00:45:17;9.40;;;5.10;;
59571;SDS011;59406;45.602;11.904;2022-11-20T00:47:43;9.87;;;5.30;;
59571;SDS011;59406;45.602;11.904;2022-11-20T00:50:08;10.45;;;5.28;;
59571;SDS011;59406;45.602;11.904;2022-11-20T00:52:34;9.60;;;5.15;;
59571;SDS011;59406;45.602;11.904;2022-11-20T00:55:00;9.20;;;4.47;;
59571;SDS011;59406;45.602;11.904;2022-11-20T00:57:26;8.60;;;4.75;;
59571;SDS011;59406;45.602;11.904;2022-11-20T00:59:52;9.80;;;5.10;;
59571;SDS011;59406;45.602;11.904;2022-11-20T01:02:20;10.68;;;4.63;;
59571;SDS011;59406;45.602;11.904;2022-11-20T01:04:46;7.65;;;3.72;;
59571;SDS011;59406;45.602;11.904;2022-11-20T01:07:12;8.07;;;3.60;;
59571;SDS011;59406;45.602;11.904;2022-11-20T01:09:37;8.35;;;4.53;;
59571;SDS011;59406;45.602;11.904;2022-11-20T01:12:03;8.18;;;3.60;;
59571;SDS011;59406;45.602;11.904;2022-11-20T01:14:29;7.70;;;3.90;;
59571;SDS011;59406;45.602;11.904;2022-11-20T01:16:55;8.23;;;4.25;;
59571;SDS011;59406;45.602;11.904;2022-11-20T01:19:22;8.50;;;4.00;;
59571;SDS011;59406;45.602;11.904;2022-11-20T01:21:50;7.47;;;3.67;;
59571;SDS011;59406;45.602;11.904;2022-11-20T01:24:18;7.25;;;2.97;;
59571;SDS011;59406;45.602;11.904;2022-11-20T01:26:46;9.70;;;3.83;;
59571;SDS011;59406;45.602;11.904;2022-11-20T01:29:15;11.95;;;5.85;;
59571;SDS011;59406;45.602;11.904;2022-11-20T01:31:43;12.70;;;6.28;;
59571;SDS011;59406;45.602;11.904;2022-11-20T01:34:11;8.90;;;4.63;;
59571;SDS011;59406;45.602;11.904;2022-11-20T01:36:39;12.38;;;5.90;;
59571;SDS011;59406;45.602;11.904;2022-11-20T01:39:07;11.73;;;6.00;;
59571;SDS011;59406;45.602;11.904;2022-11-20T01:41:36;9.65;;;4.22;;
59571;SDS011;59406;45.602;11.904;2022-11-20T01:44:22;8.10;;;3.67;;
59571;SDS011;59406;45.602;11.904;2022-11-20T01:47:07;8.50;;;4.53;;
59571;SDS011;59406;45.602;11.904;2022-11-20T01:49:38;8.32;;;4.05;;
59571;SDS011;59406;45.602;11.904;2022-11-20T01:52:18;8.75;;;4.22;;
59571;SDS011;59406;45.602;11.904;2022-11-20T01:57:34;8.60;;;4.45;;
59571;SDS011;59406;45.602;11.904;2022-11-20T02:00:11;12.67;;;5.97;;
59571;SDS011;59406;45.602;11.904;2022-11-20T02:02:44;9.77;;;4.97;;
59571;SDS011;59406;45.602;11.904;2022-11-20T02:05:36;8.18;;;3.40;;
59571;SDS011;59406;45.602;11.904;2022-11-20T02:08:10;10.90;;;5.22;;
59571;SDS011;59406;45.602;11.904;2022-11-20T02:10:37;12.00;;;6.65;;
59571;SDS011;59406;45.602;11.904;2022-11-20T02:13:03;10.33;;;4.47;;
59571;SDS011;59406;45.602;11.904;2022-11-20T02:15:48;10.43;;;5.00;;
59571;SDS011;59406;45.602;11.904;2022-11-20T02:18:16;10.27;;;5.88;;
59571;SDS011;59406;45.602;11.904;2022-11-20T02:20:45;8.50;;;4.40;;
59571;SDS011;59406;45.602;11.904;2022-11-20T02:26:18;9.00;;;5.33;;
59571;SDS011;59406;45.602;11.904;2022-11-20T02:28:46;10.15;;;6.20;;
59571;SDS011;59406;45.602;11.904;2022-11-20T02:31:12;13.48;;;7.50;;
59571;SDS011;59406;45.602;11.904;2022-11-20T02:33:37;9.00;;;5.00;;
59571;SDS011;59406;45.602;11.904;2022-11-20T02:36:03;11.90;;;6.53;;
59571;SDS011;59406;45.602;11.904;2022-11-20T02:38:30;13.20;;;7.10;;
59571;SDS011;59406;45.602;11.904;2022-11-20T02:40:56;13.93;;;7.20;;
59571;SDS011;59406;45.602;11.904;2022-11-20T02:43:22;10.48;;;5.78;;
59571;SDS011;59406;45.602;11.904;2022-11-20T02:45:48;12.53;;;6.23;;
59571;SDS011;59406;45.602;11.904;2022-11-20T02:48:15;13.25;;;6.55;;
59571;SDS011;59406;45.602;11.904;2022-11-20T02:50:41;13.88;;;6.78;;
59571;SDS011;59406;45.602;11.904;2022-11-20T02:53:08;11.30;;;5.15;;
59571;SDS011;59406;45.602;11.904;2022-11-20T02:55:34;8.82;;;4.82;;
59571;SDS011;59406;45.602;11.904;2022-11-20T02:58:01;13.23;;;6.33;;
59571;SDS011;59406;45.602;11.904;2022-11-20T03:00:27;12.13;;;5.82;;
59571;SDS011;59406;45.602;11.904;2022-11-20T03:02:52;10.88;;;5.88;;
59571;SDS011;59406;45.602;11.904;2022-11-20T03:05:18;10.50;;;6.07;;
59571;SDS011;59406;45.602;11.904;2022-11-20T03:07:44;12.48;;;6.50;;
59571;SDS011;59406;45.602;11.904;2022-11-20T03:10:10;10.47;;;5.17;;
59571;SDS011;59406;45.602;11.904;2022-11-20T03:12:36;10.57;;;5.30;;
59571;SDS011;59406;45.602;11.904;2022-11-20T03:15:02;9.48;;;4.68;;
59571;SDS011;59406;45.602;11.904;2022-11-20T03:17:28;8.77;;;4.40;;
59571;SDS011;59406;45.602;11.904;2022-11-20T03:19:56;9.23;;;4.50;;
59571;SDS011;59406;45.602;11.904;2022-11-20T03:22:22;11.40;;;6.25;;
59571;SDS011;59406;45.602;11.904;2022-11-20T03:24:48;9.98;;;5.53;;
59571;SDS011;59406;45.602;11.904;2022-11-20T03:27:13;9.45;;;4.45;;
59571;SDS011;59406;45.602;11.904;2022-11-20T03:29:39;9.47;;;4.63;;
59571;SDS011;59406;45.602;11.904;2022-11-20T03:32:05;8.80;;;4.90;;
59571;SDS011;59406;45.602;11.904;2022-11-20T03:34:31;9.47;;;4.87;;
59571;SDS011;59406;45.602;11.904;2022-11-20T03:36:57;9.65;;;5.53;;
59571;SDS011;59406;45.602;11.904;2022-11-20T03:39:23;13.65;;;5.43;;
59571;SDS011;59406;45.602;11.904;2022-11-20T03:41:48;10.27;;;5.00;;
59571;SDS011;59406;45.602;11.904;2022-11-20T03:44:14;10.00;;;5.70;;
59571;SDS011;59406;45.602;11.904;2022-11-20T03:46:40;8.75;;;4.68;;
59571;SDS011;59406;45.602;11.904;2022-11-20T03:49:06;9.50;;;4.00;;
59571;SDS011;59406;45.602;11.904;2022-11-20T03:51:32;7.32;;;3.35;;
59571;SDS011;59406;45.602;11.904;2022-11-20T03:54:04;10.57;;;6.38;;
59571;SDS011;59406;45.602;11.904;2022-11-20T03:56:32;10.50;;;6.15;;
59571;SDS011;59406;45.602;11.904;2022-11-20T03:59:00;9.17;;;4.80;;
59571;SDS011;59406;45.602;11.904;2022-11-20T04:01:27;10.68;;;4.57;;
59571;SDS011;59406;45.602;11.904;2022-11-20T04:03:55;9.82;;;4.35;;
59571;SDS011;59406;45.602;11.904;2022-11-20T04:06:23;8.25;;;4.38;;
59571;SDS011;59406;45.602;11.904;2022-11-20T04:08:54;9.07;;;4.60;;
59571;SDS011;59406;45.602;11.904;2022-11-20T04:11:23;9.55;;;5.00;;
59571;SDS011;59406;45.602;11.904;2022-11-20T04:13:54;8.55;;;3.92;;
59571;SDS011;59406;45.602;11.904;2022-11-20T04:16:21;11.70;;;5.63;;
59571;SDS011;59406;45.602;11.904;2022-11-20T04:18:55;10.52;;;4.93;;
59571;SDS011;59406;45.602;11.904;2022-11-20T04:21:23;13.87;;;6.27;;
59571;SDS011;59406;45.602;11.904;2022-11-20T04:23:50;11.40;;;6.00;;
59571;SDS011;59406;45.602;11.904;2022-11-20T04:26:18;12.32;;;6.13;;
59571;SDS011;59406;45.602;11.904;2022-11-20T04:28:45;12.45;;;5.90;;
59571;SDS011;59406;45.602;11.904;2022-11-20T04:31:14;15.13;;;6.90;;
59571;SDS011;59406;45.602;11.904;2022-11-20T04:33:50;10.50;;;5.60;;
59571;SDS011;59406;45.602;11.904;2022-11-20T04:36:17;11.57;;;5.90;;
59571;SDS011;59406;45.602;11.904;2022-11-20T04:38:45;11.75;;;5.70;;
59571;SDS011;59406;45.602;11.904;2022-11-20T04:41:15;8.43;;;4.68;;
59571;SDS011;59406;45.602;11.904;2022-11-20T04:43:45;11.17;;;5.00;;
59571;SDS011;59406;45.602;11.904;2022-11-20T04:46:13;10.38;;;4.95;;
59571;SDS011;59406;45.602;11.904;2022-11-20T04:48:40;11.27;;;5.55;;
59571;SDS011;59406;45.602;11.904;2022-11-20T04:51:06;12.40;;;6.03;;
59571;SDS011;59406;45.602;11.904;2022-11-20T04:53:31;10.40;;;4.67;;
59571;SDS011;59406;45.602;11.904;2022-11-20T04:56:01;11.18;;;5.00;;
59571;SDS011;59406;45.602;11.904;2022-11-20T04:58:28;9.40;;;4.78;;
59571;SDS011;59406;45.602;11.904;2022-11-20T05:01:01;10.33;;;4.67;;
59571;SDS011;59406;45.602;11.904;2022-11-20T05:03:34;10.35;;;4.75;;
59571;SDS011;59406;45.602;11.904;2022-11-20T05:06:00;8.65;;;5.25;;
59571;SDS011;59406;45.602;11.904;2022-11-20T05:08:28;10.25;;;4.90;;
59571;SDS011;59406;45.602;11.904;2022-11-20T05:10:59;9.07;;;4.63;;
59571;SDS011;59406;45.602;11.904;2022-11-20T05:13:29;10.63;;;4.70;;
59571;SDS011;59406;45.602;11.904;2022-11-20T05:15:55;9.07;;;4.18;;
59571;SDS011;59406;45.602;11.904;2022-11-20T05:18:26;9.65;;;4.60;;
59571;SDS011;59406;45.602;11.904;2022-11-20T05:20:56;8.32;;;3.83;;
59571;SDS011;59406;45.602;11.904;2022-11-20T05:23:23;9.70;;;4.65;;
59571;SDS011;59406;45.602;11.904;2022-11-20T05:25:52;9.67;;;4.43;;
59571;SDS011;59406;45.602;11.904;2022-11-20T05:28:19;10.73;;;5.22;;
59571;SDS011;59406;45.602;11.904;2022-11-20T05:30:46;10.13;;;3.72;;
59571;SDS011;59406;45.602;11.904;2022-11-20T05:33:12;7.65;;;3.08;;
59571;SDS011;59406;45.602;11.904;2022-11-20T05:35:38;6.50;;;3.00;;
59571;SDS011;59406;45.602;11.904;2022-11-20T05:38:04;8.07;;;3.67;;
59571;SDS011;59406;45.602;11.904;2022-11-20T05:40:30;11.65;;;5.15;;
59571;SDS011;59406;45.602;11.904;2022-11-20T05:42:56;8.77;;;4.68;;
59571;SDS011;59406;45.602;11.904;2022-11-20T05:45:22;9.50;;;4.43;;
59571;SDS011;59406;45.602;11.904;2022-11-20T05:47:48;8.20;;;3.83;;
59571;SDS011;59406;45.602;11.904;2022-11-20T05:50:14;8.40;;;4.13;;
59571;SDS011;59406;45.602;11.904;2022-11-20T05:52:40;8.68;;;4.15;;
59571;SDS011;59406;45.602;11.904;2022-11-20T05:55:06;10.27;;;5.07;;
59571;SDS011;59406;45.602;11.904;2022-11-20T05:57:33;10.13;;;5.43;;
59571;SDS011;59406;45.602;11.904;2022-11-20T05:59:58;10.00;;;4.85;;
59571;SDS011;59406;45.602;11.904;2022-11-20T06:02:24;9.77;;;5.05;;
59571;SDS011;59406;45.602;11.904;2022-11-20T06:04:51;11.13;;;4.77;;
59571;SDS011;59406;45.602;11.904;2022-11-20T06:07:17;9.40;;;5.03;;
59571;SDS011;59406;45.602;11.904;2022-11-20T06:09:42;10.27;;;4.53;;
59571;SDS011;59406;45.602;11.904;2022-11-20T06:12:08;9.80;;;4.28;;
59571;SDS011;59406;45.602;11.904;2022-11-20T06:14:34;9.57;;;4.00;;
59571;SDS011;59406;45.602;11.904;2022-11-20T06:17:00;8.93;;;4.93;;
59571;SDS011;59406;45.602;11.904;2022-11-20T06:19:26;9.52;;;4.63;;
59571;SDS011;59406;45.602;11.904;2022-11-20T06:21:52;10.17;;;4.20;;
59571;SDS011;59406;45.602;11.904;2022-11-20T06:24:18;9.90;;;4.50;;
59571;SDS011;59406;45.602;11.904;2022-11-20T06:26:44;11.82;;;4.22;;
59571;SDS011;59406;45.602;11.904;2022-11-20T06:29:10;9.02;;;4.03;;
59571;SDS011;59406;45.602;11.904;2022-11-20T06:31:36;8.43;;;4.47;;
59571;SDS011;59406;45.602;11.904;2022-11-20T06:34:05;8.80;;;3.80;;
59571;SDS011;59406;45.602;11.904;2022-11-20T06:36:33;7.97;;;4.13;;
59571;SDS011;59406;45.602;11.904;2022-11-20T06:39:00;7.50;;;2.97;;
59571;SDS011;59406;45.602;11.904;2022-11-20T06:41:26;7.45;;;4.05;;
59571;SDS011;59406;45.602;11.904;2022-11-20T06:43:53;11.67;;;5.83;;
59571;SDS011;59406;45.602;11.904;2022-11-20T06:46:19;10.57;;;5.00;;
59571;SDS011;59406;45.602;11.904;2022-11-20T06:48:46;12.00;;;5.75;;
59571;SDS011;59406;45.602;11.904;2022-11-20T06:51:13;11.50;;;5.03;;
59571;SDS011;59406;45.602;11.904;2022-11-20T06:53:40;11.75;;;5.47;;
59571;SDS011;59406;45.602;11.904;2022-11-20T06:56:06;11.27;;;4.50;;
59571;SDS011;59406;45.602;11.904;2022-11-20T06:58:33;7.82;;;3.80;;
59571;SDS011;59406;45.602;11.904;2022-11-20T07:01:00;8.55;;;3.65;;
59571;SDS011;59406;45.602;11.904;2022-11-20T07:03:37;9.18;;;3.80;;
59571;SDS011;59406;45.602;11.904;2022-11-20T07:06:05;8.45;;;3.20;;
59571;SDS011;59406;45.602;11.904;2022-11-20T07:08:32;7.73;;;3.33;;
59571;SDS011;59406;45.602;11.904;2022-11-20T07:10:59;7.85;;;3.70;;
59571;SDS011;59406;45.602;11.904;2022-11-20T07:13:27;8.43;;;2.92;;
59571;SDS011;59406;45.602;11.904;2022-11-20T07:15:54;7.85;;;2.67;;
59571;SDS011;59406;45.602;11.904;2022-11-20T07:18:24;8.38;;;3.28;;
59571;SDS011;59406;45.602;11.904;2022-11-20T07:20:50;8.13;;;3.70;;
59571;SDS011;59406;45.602;11.904;2022-11-20T07:23:16;9.68;;;3.03;;
59571;SDS011;59406;45.602;11.904;2022-11-20T07:25:42;14.98;;;3.88;;
59571;SDS011;59406;45.602;11.904;2022-11-20T07:28:08;10.87;;;4.70;;
59571;SDS011;59406;45.602;11.904;2022-11-20T07:30:36;8.23;;;4.35;;
59571;SDS011;59406;45.602;11.904;2022-11-20T07:33:03;9.90;;;4.88;;
59571;SDS011;59406;45.602;11.904;2022-11-20T07:35:29;8.15;;;4.00;;
59571;SDS011;59406;45.602;11.904;2022-11-20T07:37:55;7.95;;;3.90;;
59571;SDS011;59406;45.602;11.904;2022-11-20T07:40:20;10.40;;;4.67;;
59571;SDS011;59406;45.602;11.904;2022-11-20T07:42:47;12.82;;;5.97;;
59571;SDS011;59406;45.602;11.904;2022-11-20T07:45:14;11.20;;;5.82;;
59571;SDS011;59406;45.602;11.904;2022-11-20T07:47:40;11.30;;;6.03;;
59571;SDS011;59406;45.602;11.904;2022-11-20T07:50:06;12.07;;;5.65;;
59571;SDS011;59406;45.602;11.904;2022-11-20T07:52:32;13.40;;;5.60;;
59571;SDS011;59406;45.602;11.904;2022-11-20T07:54:58;10.70;;;5.03;;
59571;SDS011;59406;45.602;11.904;2022-11-20T07:57:27;10.90;;;5.27;;
59571;SDS011;59406;45.602;11.904;2022-11-20T07:59:53;11.45;;;4.85;;
59571;SDS011;59406;45.602;11.904;2022-11-20T08:02:19;9.63;;;4.55;;
59571;SDS011;59406;45.602;11.904;2022-11-20T08:04:45;10.87;;;4.83;;
59571;SDS011;59406;45.602;11.904;2022-11-20T08:07:11;9.55;;;4.20;;
59571;SDS011;59406;45.602;11.904;2022-11-20T08:09:37;8.52;;;4.03;;
59571;SDS011;59406;45.602;11.904;2022-11-20T08:12:03;8.00;;;3.75;;
59571;SDS011;59406;45.602;11.904;2022-11-20T08:14:47;9.37;;;3.93;;
59571;SDS011;59406;45.602;11.904;2022-11-20T08:17:13;9.45;;;4.40;;
59571;SDS011;59406;45.602;11.904;2022-11-20T08:19:39;10.57;;;4.32;;
59571;SDS011;59406;45.602;11.904;2022-11-20T08:22:05;10.23;;;4.87;;
59571;SDS011;59406;45.602;11.904;2022-11-20T08:24:31;11.52;;;5.63;;
59571;SDS011;59406;45.602;11.904;2022-11-20T08:26:57;9.55;;;4.93;;
59571;SDS011;59406;45.602;11.904;2022-11-20T08:29:24;9.82;;;4.55;;
59571;SDS011;59406;45.602;11.904;2022-11-20T08:31:52;10.13;;;5.00;;
59571;SDS011;59406;45.602;11.904;2022-11-20T08:34:18;9.20;;;4.00;;
59571;SDS011;59406;45.602;11.904;2022-11-20T08:36:44;8.90;;;3.80;;
59571;SDS011;59406;45.602;11.904;2022-11-20T08:39:11;8.05;;;4.05;;
59571;SDS011;59406;45.602;11.904;2022-11-20T08:41:38;8.27;;;3.90;;
59571;SDS011;59406;45.602;11.904;2022-11-20T08:44:04;7.50;;;3.45;;
59571;SDS011;59406;45.602;11.904;2022-11-20T08:46:33;9.38;;;3.30;;
59571;SDS011;59406;45.602;11.904;2022-11-20T08:49:04;6.80;;;3.53;;
59571;SDS011;59406;45.602;11.904;2022-11-20T08:51:32;6.10;;;3.17;;
59571;SDS011;59406;45.602;11.904;2022-11-20T08:53:57;5.85;;;3.03;;
59571;SDS011;59406;45.602;11.904;2022-11-20T08:56:23;6.43;;;2.75;;
59571;SDS011;59406;45.602;11.904;2022-11-20T08:58:50;5.63;;;2.20;;
59571;SDS011;59406;45.602;11.904;2022-11-20T09:01:17;5.53;;;2.30;;
59571;SDS011;59406;45.602;11.904;2022-11-20T09:03:47;5.22;;;2.38;;
59571;SDS011;59406;45.602;11.904;2022-11-20T09:06:13;4.88;;;2.25;;
59571;SDS011;59406;45.602;11.904;2022-11-20T09:08:39;4.93;;;1.90;;
59571;SDS011;59406;45.602;11.904;2022-11-20T09:11:05;6.95;;;2.35;;
59571;SDS011;59406;45.602;11.904;2022-11-20T09:13:32;4.93;;;2.22;;
59571;SDS011;59406;45.602;11.904;2022-11-20T09:16:03;5.75;;;2.17;;
59571;SDS011;59406;45.602;11.904;2022-11-20T09:18:32;5.00;;;2.13;;
59571;SDS011;59406;45.602;11.904;2022-11-20T09:20:59;7.77;;;2.20;;
59571;SDS011;59406;45.602;11.904;2022-11-20T09:23:26;4.60;;;1.70;;
59571;SDS011;59406;45.602;11.904;2022-11-20T09:25:56;7.72;;;4.50;;
59571;SDS011;59406;45.602;11.904;2022-11-20T09:28:25;5.85;;;1.83;;
59571;SDS011;59406;45.602;11.904;2022-11-20T09:30:51;5.50;;;1.70;;
59571;SDS011;59406;45.602;11.904;2022-11-20T09:33:17;5.27;;;1.70;;
59571;SDS011;59406;45.602;11.904;2022-11-20T09:35:43;3.83;;;1.50;;
59571;SDS011;59406;45.602;11.904;2022-11-20T09:38:10;4.55;;;1.52;;
59571;SDS011;59406;45.602;11.904;2022-11-20T09:40:38;5.32;;;1.70;;
59571;SDS011;59406;45.602;11.904;2022-11-20T09:43:13;4.67;;;1.27;;
59571;SDS011;59406;45.602;11.904;2022-11-20T09:46:11;3.50;;;1.00;;
59571;SDS011;59406;45.602;11.904;2022-11-20T09:48:48;4.50;;;1.27;;
59571;SDS011;59406;45.602;11.904;2022-11-20T09:51:25;3.78;;;1.00;;
59571;SDS011;59406;45.602;11.904;2022-11-20T09:56:39;4.40;;;1.00;;
59571;SDS011;59406;45.602;11.904;2022-11-20T09:59:12;3.35;;;0.85;;
59571;SDS011;59406;45.602;11.904;2022-11-20T10:01:59;5.47;;;1.10;;
59571;SDS011;59406;45.602;11.904;2022-11-20T10:04:28;4.55;;;1.17;;
59571;SDS011;59406;45.602;11.904;2022-11-20T10:09:39;4.20;;;0.80;;
59571;SDS011;59406;45.602;11.904;2022-11-20T10:29:33;3.85;;;1.25;;
59571;SDS011;59406;45.602;11.904;2022-11-20T10:32:08;6.07;;;1.38;;
59571;SDS011;59406;45.602;11.904;2022-11-20T10:39:56;4.32;;;0.73;;
59571;SDS011;59406;45.602;11.904;2022-11-20T10:42:35;3.72;;;0.80;;
59571;SDS011;59406;45.602;11.904;2022-11-20T10:47:56;3.70;;;0.68;;
59571;SDS011;59406;45.602;11.904;2022-11-20T10:50:35;3.67;;;1.00;;
59571;SDS011;59406;45.602;11.904;2022-11-20T10:53:42;4.20;;;0.60;;
59571;SDS011;59406;45.602;11.904;2022-11-20T10:56:36;5.43;;;1.40;;
59571;SDS011;59406;45.602;11.904;2022-11-20T11:02:20;3.40;;;0.70;;
59571;SDS011;59406;45.602;11.904;2022-11-20T11:04:58;4.57;;;0.97;;
59571;SDS011;59406;45.602;11.904;2022-11-20T11:07:36;5.18;;;0.93;;
59571;SDS011;59406;45.602;11.904;2022-11-20T11:13:18;3.63;;;0.75;;
59571;SDS011;59406;45.602;11.904;2022-11-20T11:15:46;3.97;;;0.82;;
59571;SDS011;59406;45.602;11.904;2022-11-20T11:18:22;4.40;;;0.90;;
59571;SDS011;59406;45.602;11.904;2022-11-20T11:20:57;4.80;;;0.90;;
59571;SDS011;59406;45.602;11.904;2022-11-20T11:23:30;4.43;;;1.13;;
59571;SDS011;59406;45.602;11.904;2022-11-20T11:26:02;3.85;;;0.80;;
59571;SDS011;59406;45.602;11.904;2022-11-20T11:28:31;7.45;;;0.90;;
59571;SDS011;59406;45.602;11.904;2022-11-20T11:30:57;4.30;;;0.90;;
59571;SDS011;59406;45.602;11.904;2022-11-20T11:33:28;3.50;;;0.80;;
59571;SDS011;59406;45.602;11.904;2022-11-20T11:35:58;4.28;;;0.85;;
59571;SDS011;59406;45.602;11.904;2022-11-20T11:38:32;7.85;;;0.90;;
59571;SDS011;59406;45.602;11.904;2022-11-20T11:41:02;3.08;;;0.60;;
59571;SDS011;59406;45.602;11.904;2022-11-20T11:43:34;4.33;;;0.73;;
59571;SDS011;59406;45.602;11.904;2022-11-20T11:48:58;5.57;;;0.90;;
59571;SDS011;59406;45.602;11.904;2022-11-20T11:51:29;3.47;;;0.90;;
59571;SDS011;59406;45.602;11.904;2022-11-20T12:00:18;4.00;;;0.85;;
59571;SDS011;59406;45.602;11.904;2022-11-20T12:07:42;4.33;;;0.80;;
59571;SDS011;59406;45.602;11.904;2022-11-20T12:10:14;4.53;;;0.70;;
59571;SDS011;59406;45.602;11.904;2022-11-20T12:12:48;2.53;;;0.40;;
59571;SDS011;59406;45.602;11.904;2022-11-20T12:15:30;4.28;;;0.77;;
59571;SDS011;59406;45.602;11.904;2022-11-20T12:17:58;3.53;;;0.73;;
59571;SDS011;59406;45.602;11.904;2022-11-20T12:20:28;5.73;;;1.40;;
59571;SDS011;59406;45.602;11.904;2022-11-20T12:23:05;4.38;;;1.05;;
59571;SDS011;59406;45.602;11.904;2022-11-20T12:25:39;2.90;;;0.60;;
59571;SDS011;59406;45.602;11.904;2022-11-20T12:53:07;3.45;;;0.63;;
59571;SDS011;59406;45.602;11.904;2022-11-20T12:56:02;3.05;;;0.60;;
59571;SDS011;59406;45.602;11.904;2022-11-20T13:01:39;3.83;;;0.50;;
59571;SDS011;59406;45.602;11.904;2022-11-20T13:06:56;3.65;;;0.68;;
59571;SDS011;59406;45.602;11.904;2022-11-20T13:09:23;3.40;;;0.63;;
59571;SDS011;59406;45.602;11.904;2022-11-20T13:11:54;5.55;;;1.20;;
59571;SDS011;59406;45.602;11.904;2022-11-20T13:19:37;6.13;;;0.80;;
59571;SDS011;59406;45.602;11.904;2022-11-20T13:22:03;4.43;;;0.60;;
59571;SDS011;59406;45.602;11.904;2022-11-20T13:24:30;3.40;;;0.50;;
59571;SDS011;59406;45.602;11.904;2022-11-20T13:27:00;3.30;;;0.70;;
59571;SDS011;59406;45.602;11.904;2022-11-20T13:29:30;5.00;;;0.85;;
59571;SDS011;59406;45.602;11.904;2022-11-20T13:34:50;2.85;;;0.65;;
59571;SDS011;59406;45.602;11.904;2022-11-20T13:37:31;4.38;;;0.88;;
59571;SDS011;59406;45.602;11.904;2022-11-20T13:40:32;4.47;;;0.90;;
59571;SDS011;59406;45.602;11.904;2022-11-20T13:42:54;4.20;;;0.77;;
59571;SDS011;59406;45.602;11.904;2022-11-20T13:45:27;3.15;;;0.65;;
59571;SDS011;59406;45.602;11.904;2022-11-20T13:47:56;3.55;;;1.13;;
59571;SDS011;59406;45.602;11.904;2022-11-20T13:50:37;3.05;;;0.93;;
59571;SDS011;59406;45.602;11.904;2022-11-20T13:56:07;3.25;;;0.63;;
59571;SDS011;59406;45.602;11.904;2022-11-20T13:58:44;2.75;;;0.50;;
59571;SDS011;59406;45.602;11.904;2022-11-20T14:01:29;3.42;;;0.70;;
59571;SDS011;59406;45.602;11.904;2022-11-20T14:04:00;4.00;;;0.73;;
59571;SDS011;59406;45.602;11.904;2022-11-20T14:06:43;3.40;;;1.00;;
59571;SDS011;59406;45.602;11.904;2022-11-20T14:09:32;2.78;;;0.60;;
59571;SDS011;59406;45.602;11.904;2022-11-20T14:11:58;5.45;;;1.05;;
59571;SDS011;59406;45.602;11.904;2022-11-20T14:14:28;4.35;;;0.75;;
59571;SDS011;59406;45.602;11.904;2022-11-20T14:19:46;3.70;;;1.33;;
59571;SDS011;59406;45.602;11.904;2022-11-20T14:22:18;5.22;;;1.13;;
59571;SDS011;59406;45.602;11.904;2022-11-20T14:24:49;2.85;;;0.60;;
59571;SDS011;59406;45.602;11.904;2022-11-20T14:27:32;3.60;;;1.10;;
59571;SDS011;59406;45.602;11.904;2022-11-20T14:30:01;4.22;;;1.10;;
59571;SDS011;59406;45.602;11.904;2022-11-20T14:32:28;5.60;;;1.50;;
59571;SDS011;59406;45.602;11.904;2022-11-20T14:34:57;4.00;;;1.45;;
59571;SDS011;59406;45.602;11.904;2022-11-20T14:37:28;4.05;;;1.50;;
59571;SDS011;59406;45.602;11.904;2022-11-20T14:39:58;4.25;;;1.23;;
59571;SDS011;59406;45.602;11.904;2022-11-20T14:42:26;4.93;;;1.60;;
59571;SDS011;59406;45.602;11.904;2022-11-20T14:44:57;3.60;;;1.23;;
59571;SDS011;59406;45.602;11.904;2022-11-20T14:47:25;3.13;;;0.93;;
59571;SDS011;59406;45.602;11.904;2022-11-20T14:49:53;3.70;;;1.17;;
59571;SDS011;59406;45.602;11.904;2022-11-20T14:52:21;5.03;;;1.38;;
59571;SDS011;59406;45.602;11.904;2022-11-20T14:54:55;4.22;;;1.45;;
59571;SDS011;59406;45.602;11.904;2022-11-20T14:57:26;3.87;;;1.20;;
59571;SDS011;59406;45.602;11.904;2022-11-20T15:02:44;5.95;;;2.10;;
59571;SDS011;59406;45.602;11.904;2022-11-20T15:05:12;7.20;;;2.35;;
59571;SDS011;59406;45.602;11.904;2022-11-20T15:07:43;5.25;;;1.83;;
59571;SDS011;59406;45.602;11.904;2022-11-20T15:12:59;5.35;;;1.95;;
59571;SDS011;59406;45.602;11.904;2022-11-20T15:15:29;6.35;;;1.80;;
59571;SDS011;59406;45.602;11.904;2022-11-20T15:20:49;5.18;;;1.70;;
59571;SDS011;59406;45.602;11.904;2022-11-20T15:23:18;4.43;;;1.67;;
59571;SDS011;59406;45.602;11.904;2022-11-20T15:25:44;3.75;;;1.20;;
59571;SDS011;59406;45.602;11.904;2022-11-20T15:28:13;3.85;;;1.20;;
59571;SDS011;59406;45.602;11.904;2022-11-20T15:30:44;4.63;;;1.45;;
59571;SDS011;59406;45.602;11.904;2022-11-20T15:33:11;4.68;;;1.60;;
59571;SDS011;59406;45.602;11.904;2022-11-20T15:35:38;3.70;;;1.00;;
59571;SDS011;59406;45.602;11.904;2022-11-20T15:38:04;5.20;;;1.90;;
59571;SDS011;59406;45.602;11.904;2022-11-20T15:40:31;4.20;;;1.95;;
59571;SDS011;59406;45.602;11.904;2022-11-20T15:42:56;6.10;;;2.58;;
59571;SDS011;59406;45.602;11.904;2022-11-20T15:45:29;5.97;;;1.93;;
59571;SDS011;59406;45.602;11.904;2022-11-20T15:48:04;6.97;;;2.80;;
59571;SDS011;59406;45.602;11.904;2022-11-20T15:50:57;6.25;;;2.50;;
59571;SDS011;59406;45.602;11.904;2022-11-20T15:53:37;6.13;;;2.40;;
59571;SDS011;59406;45.602;11.904;2022-11-20T15:56:04;5.85;;;1.95;;
59571;SDS011;59406;45.602;11.904;2022-11-20T15:58:30;4.57;;;1.83;;
59571;SDS011;59406;45.602;11.904;2022-11-20T16:00:55;4.55;;;1.55;;
59571;SDS011;59406;45.602;11.904;2022-11-20T16:03:21;5.55;;;1.75;;
59571;SDS011;59406;45.602;11.904;2022-11-20T16:05:48;7.00;;;2.10;;
59571;SDS011;59406;45.602;11.904;2022-11-20T16:08:14;5.40;;;2.15;;
59571;SDS011;59406;45.602;11.904;2022-11-20T16:10:40;5.75;;;2.65;;
59571;SDS011;59406;45.602;11.904;2022-11-20T16:13:13;6.35;;;2.45;;
59571;SDS011;59406;45.602;11.904;2022-11-20T16:16:01;6.23;;;2.23;;
59571;SDS011;59406;45.602;11.904;2022-11-20T16:18:30;8.52;;;2.38;;
59571;SDS011;59406;45.602;11.904;2022-11-20T16:20:56;5.63;;;2.55;;
59571;SDS011;59406;45.602;11.904;2022-11-20T16:23:22;5.45;;;2.22;;
59571;SDS011;59406;45.602;11.904;2022-11-20T16:25:48;5.13;;;2.00;;
59571;SDS011;59406;45.602;11.904;2022-11-20T16:28:15;6.30;;;2.53;;
59571;SDS011;59406;45.602;11.904;2022-11-20T16:30:42;5.43;;;2.30;;
59571;SDS011;59406;45.602;11.904;2022-11-20T16:33:14;5.65;;;2.25;;